sensor_id;sensor_type;location;lat;lon;timestamp;P1;durP1;ratioP1;P2;durP2;ratioP2
40339;SDS011;26044;50.864;20.658;2023-03-01T00:01:19;264.77;;;116.32;;
40339;SDS011;26044;50.864;20.658;2023-03-01T00:03:46;246.75;;;107.97;;
40339;SDS011;26044;50.864;20.658;2023-03-01T00:06:14;237.98;;;105.18;;
40339;SDS011;26044;50.864;20.658;2023-03-01T00:08:41;240.95;;;105.35;;
40339;SDS011;26044;50.864;20.658;2023-03-01T00:11:19;250.77;;;112.82;;
40339;SDS011;26044;50.864;20.658;2023-03-01T00:13:47;275.25;;;118.75;;
40339;SDS011;26044;50.864;20.658;2023-03-01T00:16:20;251.13;;;112.22;;
40339;SDS011;26044;50.864;20.658;2023-03-01T00:18:48;273.77;;;114.95;;
40339;SDS011;26044;50.864;20.658;2023-03-01T00:21:17;263.42;;;116.35;;
40339;SDS011;26044;50.864;20.658;2023-03-01T00:23:44;290.48;;;122.60;;
40339;SDS011;26044;50.864;20.658;2023-03-01T00:26:12;287.35;;;122.72;;
40339;SDS011;26044;50.864;20.658;2023-03-01T00:28:40;281.90;;;127.07;;
40339;SDS011;26044;50.864;20.658;2023-03-01T00:31:09;276.63;;;123.05;;
40339;SDS011;26044;50.864;20.658;2023-03-01T00:33:37;288.13;;;122.72;;
40339;SDS011;26044;50.864;20.658;2023-03-01T00:36:04;278.38;;;118.00;;
40339;SDS011;26044;50.864;20.658;2023-03-01T00:38:38;257.77;;;113.32;;
40339;SDS011;26044;50.864;20.658;2023-03-01T00:41:10;255.52;;;112.82;;
40339;SDS011;26044;50.864;20.658;2023-03-01T00:43:38;242.13;;;104.78;;
40339;SDS011;26044;50.864;20.658;2023-03-01T00:46:06;245.38;;;104.47;;
40339;SDS011;26044;50.864;20.658;2023-03-01T00:48:34;240.10;;;102.53;;
40339;SDS011;26044;50.864;20.658;2023-03-01T00:51:20;227.93;;;97.20;;
40339;SDS011;26044;50.864;20.658;2023-03-01T00:53:51;218.23;;;92.18;;
40339;SDS011;26044;50.864;20.658;2023-03-01T00:56:19;214.18;;;91.97;;
40339;SDS011;26044;50.864;20.658;2023-03-01T00:58:47;216.98;;;95.00;;
40339;SDS011;26044;50.864;20.658;2023-03-01T01:01:15;218.27;;;94.05;;
40339;SDS011;26044;50.864;20.658;2023-03-01T01:03:44;206.73;;;90.13;;
40339;SDS011;26044;50.864;20.658;2023-03-01T01:06:16;208.05;;;90.75;;
40339;SDS011;26044;50.864;20.658;2023-03-01T01:08:43;197.52;;;83.13;;
40339;SDS011;26044;50.864;20.658;2023-03-01T01:11:11;198.85;;;83.30;;
40339;SDS011;26044;50.864;20.658;2023-03-01T01:13:39;186.57;;;77.18;;
40339;SDS011;26044;50.864;20.658;2023-03-01T01:16:07;175.25;;;79.07;;
40339;SDS011;26044;50.864;20.658;2023-03-01T01:18:35;176.30;;;76.85;;
40339;SDS011;26044;50.864;20.658;2023-03-01T01:21:06;180.15;;;78.55;;
40339;SDS011;26044;50.864;20.658;2023-03-01T01:23:33;174.57;;;77.05;;
40339;SDS011;26044;50.864;20.658;2023-03-01T01:26:04;174.25;;;76.40;;
40339;SDS011;26044;50.864;20.658;2023-03-01T01:28:32;190.00;;;79.50;;
40339;SDS011;26044;50.864;20.658;2023-03-01T01:30:59;172.43;;;78.68;;
40339;SDS011;26044;50.864;20.658;2023-03-01T01:33:27;193.30;;;83.05;;
40339;SDS011;26044;50.864;20.658;2023-03-01T01:35:54;184.82;;;83.20;;
40339;SDS011;26044;50.864;20.658;2023-03-01T01:38:21;203.30;;;83.13;;
40339;SDS011;26044;50.864;20.658;2023-03-01T01:40:49;191.75;;;83.15;;
40339;SDS011;26044;50.864;20.658;2023-03-01T01:43:21;199.60;;;88.30;;
40339;SDS011;26044;50.864;20.658;2023-03-01T01:45:49;205.80;;;86.65;;
40339;SDS011;26044;50.864;20.658;2023-03-01T01:48:18;202.93;;;89.10;;
40339;SDS011;26044;50.864;20.658;2023-03-01T01:50:48;214.85;;;91.75;;
40339;SDS011;26044;50.864;20.658;2023-03-01T01:53:17;242.10;;;105.00;;
40339;SDS011;26044;50.864;20.658;2023-03-01T01:55:48;235.25;;;102.78;;
40339;SDS011;26044;50.864;20.658;2023-03-01T01:58:18;234.27;;;100.07;;
40339;SDS011;26044;50.864;20.658;2023-03-01T02:00:46;236.10;;;104.45;;
40339;SDS011;26044;50.864;20.658;2023-03-01T02:03:17;256.60;;;111.00;;
40339;SDS011;26044;50.864;20.658;2023-03-01T02:06:02;251.50;;;107.88;;
40339;SDS011;26044;50.864;20.658;2023-03-01T02:08:31;248.20;;;106.15;;
40339;SDS011;26044;50.864;20.658;2023-03-01T02:10:59;255.75;;;109.78;;
40339;SDS011;26044;50.864;20.658;2023-03-01T02:13:27;255.65;;;108.70;;
40339;SDS011;26044;50.864;20.658;2023-03-01T02:15:55;243.02;;;108.95;;
40339;SDS011;26044;50.864;20.658;2023-03-01T02:18:23;237.75;;;106.55;;
40339;SDS011;26044;50.864;20.658;2023-03-01T02:23:19;254.60;;;108.80;;
40339;SDS011;26044;50.864;20.658;2023-03-01T02:25:50;248.43;;;107.78;;
40339;SDS011;26044;50.864;20.658;2023-03-01T02:30:47;240.05;;;106.00;;
40339;SDS011;26044;50.864;20.658;2023-03-01T02:33:34;235.18;;;102.38;;
40339;SDS011;26044;50.864;20.658;2023-03-01T02:36:10;242.82;;;102.57;;
40339;SDS011;26044;50.864;20.658;2023-03-01T02:38:40;230.38;;;102.28;;
40339;SDS011;26044;50.864;20.658;2023-03-01T02:41:08;247.70;;;103.82;;
40339;SDS011;26044;50.864;20.658;2023-03-01T02:43:35;230.75;;;99.43;;
40339;SDS011;26044;50.864;20.658;2023-03-01T02:46:08;243.02;;;105.75;;
40339;SDS011;26044;50.864;20.658;2023-03-01T02:48:54;237.13;;;102.75;;
40339;SDS011;26044;50.864;20.658;2023-03-01T02:54:27;228.40;;;100.72;;
40339;SDS011;26044;50.864;20.658;2023-03-01T02:56:55;224.07;;;99.95;;
40339;SDS011;26044;50.864;20.658;2023-03-01T02:59:24;239.80;;;103.63;;
40339;SDS011;26044;50.864;20.658;2023-03-01T03:01:53;222.63;;;101.35;;
40339;SDS011;26044;50.864;20.658;2023-03-01T03:04:21;234.38;;;102.35;;
40339;SDS011;26044;50.864;20.658;2023-03-01T03:06:49;243.98;;;103.97;;
40339;SDS011;26044;50.864;20.658;2023-03-01T03:09:16;238.48;;;103.22;;
40339;SDS011;26044;50.864;20.658;2023-03-01T03:11:44;235.73;;;103.28;;
40339;SDS011;26044;50.864;20.658;2023-03-01T03:14:12;248.55;;;103.85;;
40339;SDS011;26044;50.864;20.658;2023-03-01T03:16:43;229.13;;;99.80;;
40339;SDS011;26044;50.864;20.658;2023-03-01T03:19:11;227.55;;;99.28;;
40339;SDS011;26044;50.864;20.658;2023-03-01T03:21:38;233.95;;;96.90;;
40339;SDS011;26044;50.864;20.658;2023-03-01T03:24:05;226.25;;;98.85;;
40339;SDS011;26044;50.864;20.658;2023-03-01T03:26:33;224.45;;;94.97;;
40339;SDS011;26044;50.864;20.658;2023-03-01T03:29:00;209.55;;;96.13;;
40339;SDS011;26044;50.864;20.658;2023-03-01T03:31:28;221.05;;;95.70;;
40339;SDS011;26044;50.864;20.658;2023-03-01T03:33:55;201.50;;;88.97;;
40339;SDS011;26044;50.864;20.658;2023-03-01T03:36:25;195.93;;;84.07;;
40339;SDS011;26044;50.864;20.658;2023-03-01T03:38:52;190.35;;;84.25;;
40339;SDS011;26044;50.864;20.658;2023-03-01T03:41:19;190.77;;;79.15;;
40339;SDS011;26044;50.864;20.658;2023-03-01T03:43:46;186.38;;;76.10;;
40339;SDS011;26044;50.864;20.658;2023-03-01T03:46:15;183.50;;;75.32;;
40339;SDS011;26044;50.864;20.658;2023-03-01T03:48:44;162.45;;;74.38;;
40339;SDS011;26044;50.864;20.658;2023-03-01T03:51:15;170.75;;;73.70;;
40339;SDS011;26044;50.864;20.658;2023-03-01T03:53:43;167.32;;;74.43;;
40339;SDS011;26044;50.864;20.658;2023-03-01T03:56:10;180.60;;;75.05;;
40339;SDS011;26044;50.864;20.658;2023-03-01T03:58:38;182.30;;;77.03;;
40339;SDS011;26044;50.864;20.658;2023-03-01T04:01:06;180.00;;;74.43;;
40339;SDS011;26044;50.864;20.658;2023-03-01T04:03:34;166.18;;;72.65;;
40339;SDS011;26044;50.864;20.658;2023-03-01T04:06:01;167.25;;;70.82;;
40339;SDS011;26044;50.864;20.658;2023-03-01T04:08:30;167.02;;;70.68;;
40339;SDS011;26044;50.864;20.658;2023-03-01T04:10:58;161.50;;;67.82;;
40339;SDS011;26044;50.864;20.658;2023-03-01T04:13:26;154.82;;;66.30;;
40339;SDS011;26044;50.864;20.658;2023-03-01T04:15:54;163.75;;;66.65;;
40339;SDS011;26044;50.864;20.658;2023-03-01T04:18:23;154.85;;;66.45;;
40339;SDS011;26044;50.864;20.658;2023-03-01T04:20:51;157.40;;;64.38;;
40339;SDS011;26044;50.864;20.658;2023-03-01T04:23:21;167.75;;;67.05;;
40339;SDS011;26044;50.864;20.658;2023-03-01T04:25:50;154.32;;;66.32;;
40339;SDS011;26044;50.864;20.658;2023-03-01T04:28:21;153.68;;;65.55;;
40339;SDS011;26044;50.864;20.658;2023-03-01T04:30:51;151.02;;;66.72;;
40339;SDS011;26044;50.864;20.658;2023-03-01T04:33:19;142.18;;;63.70;;
40339;SDS011;26044;50.864;20.658;2023-03-01T04:35:46;142.68;;;63.00;;
40339;SDS011;26044;50.864;20.658;2023-03-01T04:38:19;148.15;;;62.17;;
40339;SDS011;26044;50.864;20.658;2023-03-01T04:40:48;139.35;;;59.33;;
40339;SDS011;26044;50.864;20.658;2023-03-01T04:43:16;136.18;;;57.97;;
40339;SDS011;26044;50.864;20.658;2023-03-01T04:45:44;132.23;;;57.17;;
40339;SDS011;26044;50.864;20.658;2023-03-01T04:48:13;130.55;;;58.08;;
40339;SDS011;26044;50.864;20.658;2023-03-01T04:50:40;133.60;;;58.53;;
40339;SDS011;26044;50.864;20.658;2023-03-01T04:53:07;124.30;;;55.90;;
40339;SDS011;26044;50.864;20.658;2023-03-01T04:55:36;133.02;;;57.45;;
40339;SDS011;26044;50.864;20.658;2023-03-01T04:58:05;129.63;;;56.05;;
40339;SDS011;26044;50.864;20.658;2023-03-01T05:00:32;135.13;;;62.28;;
40339;SDS011;26044;50.864;20.658;2023-03-01T05:03:00;124.32;;;53.35;;
40339;SDS011;26044;50.864;20.658;2023-03-01T05:05:29;114.47;;;51.80;;
40339;SDS011;26044;50.864;20.658;2023-03-01T05:07:58;121.70;;;50.40;;
40339;SDS011;26044;50.864;20.658;2023-03-01T05:10:26;114.75;;;51.33;;
40339;SDS011;26044;50.864;20.658;2023-03-01T05:12:55;121.93;;;51.70;;
40339;SDS011;26044;50.864;20.658;2023-03-01T05:15:26;113.47;;;47.88;;
40339;SDS011;26044;50.864;20.658;2023-03-01T05:17:56;112.03;;;47.72;;
40339;SDS011;26044;50.864;20.658;2023-03-01T05:20:26;105.88;;;45.50;;
40339;SDS011;26044;50.864;20.658;2023-03-01T05:22:55;115.60;;;50.15;;
40339;SDS011;26044;50.864;20.658;2023-03-01T05:25:23;100.85;;;45.67;;
40339;SDS011;26044;50.864;20.658;2023-03-01T05:27:50;107.47;;;46.95;;
40339;SDS011;26044;50.864;20.658;2023-03-01T05:30:17;111.38;;;46.72;;
40339;SDS011;26044;50.864;20.658;2023-03-01T05:32:46;106.80;;;48.03;;
40339;SDS011;26044;50.864;20.658;2023-03-01T05:35:15;108.72;;;46.55;;
40339;SDS011;26044;50.864;20.658;2023-03-01T05:37:43;111.32;;;48.38;;
40339;SDS011;26044;50.864;20.658;2023-03-01T05:40:15;131.35;;;53.42;;
40339;SDS011;26044;50.864;20.658;2023-03-01T05:42:47;120.05;;;47.50;;
40339;SDS011;26044;50.864;20.658;2023-03-01T05:45:14;130.50;;;55.08;;
40339;SDS011;26044;50.864;20.658;2023-03-01T05:47:42;111.80;;;48.85;;
40339;SDS011;26044;50.864;20.658;2023-03-01T05:50:15;133.82;;;57.83;;
40339;SDS011;26044;50.864;20.658;2023-03-01T05:52:49;141.65;;;59.13;;
40339;SDS011;26044;50.864;20.658;2023-03-01T05:55:19;136.10;;;56.55;;
40339;SDS011;26044;50.864;20.658;2023-03-01T05:57:47;141.40;;;59.67;;
40339;SDS011;26044;50.864;20.658;2023-03-01T06:00:16;129.82;;;60.20;;
40339;SDS011;26044;50.864;20.658;2023-03-01T06:02:44;130.07;;;58.13;;
40339;SDS011;26044;50.864;20.658;2023-03-01T06:05:12;133.73;;;57.97;;
40339;SDS011;26044;50.864;20.658;2023-03-01T06:07:40;140.38;;;62.25;;
40339;SDS011;26044;50.864;20.658;2023-03-01T06:10:07;160.95;;;66.90;;
40339;SDS011;26044;50.864;20.658;2023-03-01T06:12:35;218.60;;;88.50;;
40339;SDS011;26044;50.864;20.658;2023-03-01T06:15:04;163.43;;;67.10;;
40339;SDS011;26044;50.864;20.658;2023-03-01T06:17:32;184.23;;;79.63;;
40339;SDS011;26044;50.864;20.658;2023-03-01T06:20:04;228.05;;;90.80;;
40339;SDS011;26044;50.864;20.658;2023-03-01T06:22:32;227.18;;;98.13;;
40339;SDS011;26044;50.864;20.658;2023-03-01T06:24:59;216.48;;;92.35;;
40339;SDS011;26044;50.864;20.658;2023-03-01T06:27:26;202.05;;;86.88;;
40339;SDS011;26044;50.864;20.658;2023-03-01T06:29:53;169.20;;;75.35;;
40339;SDS011;26044;50.864;20.658;2023-03-01T06:32:21;155.90;;;69.22;;
40339;SDS011;26044;50.864;20.658;2023-03-01T06:34:49;138.80;;;62.30;;
40339;SDS011;26044;50.864;20.658;2023-03-01T06:37:16;171.18;;;74.63;;
40339;SDS011;26044;50.864;20.658;2023-03-01T06:39:43;175.93;;;76.18;;
40339;SDS011;26044;50.864;20.658;2023-03-01T06:42:10;133.43;;;60.50;;
40339;SDS011;26044;50.864;20.658;2023-03-01T06:44:37;145.65;;;64.32;;
40339;SDS011;26044;50.864;20.658;2023-03-01T06:47:05;119.60;;;55.50;;
40339;SDS011;26044;50.864;20.658;2023-03-01T06:49:32;116.82;;;52.92;;
40339;SDS011;26044;50.864;20.658;2023-03-01T06:51:59;114.97;;;51.15;;
40339;SDS011;26044;50.864;20.658;2023-03-01T06:54:26;112.70;;;47.78;;
40339;SDS011;26044;50.864;20.658;2023-03-01T06:56:53;113.57;;;48.40;;
40339;SDS011;26044;50.864;20.658;2023-03-01T06:59:20;115.50;;;50.30;;
40339;SDS011;26044;50.864;20.658;2023-03-01T07:01:48;102.40;;;45.28;;
40339;SDS011;26044;50.864;20.658;2023-03-01T07:04:15;130.27;;;70.93;;
40339;SDS011;26044;50.864;20.658;2023-03-01T07:06:43;104.47;;;52.83;;
40339;SDS011;26044;50.864;20.658;2023-03-01T07:09:11;110.22;;;54.67;;
40339;SDS011;26044;50.864;20.658;2023-03-01T07:11:38;96.75;;;49.20;;
40339;SDS011;26044;50.864;20.658;2023-03-01T07:14:06;79.78;;;36.30;;
40339;SDS011;26044;50.864;20.658;2023-03-01T07:16:33;86.53;;;41.47;;
40339;SDS011;26044;50.864;20.658;2023-03-01T07:19:01;78.57;;;33.80;;
40339;SDS011;26044;50.864;20.658;2023-03-01T07:21:28;74.03;;;31.58;;
40339;SDS011;26044;50.864;20.658;2023-03-01T07:23:55;67.47;;;29.50;;
40339;SDS011;26044;50.864;20.658;2023-03-01T07:26:22;71.07;;;31.92;;
40339;SDS011;26044;50.864;20.658;2023-03-01T07:28:51;71.30;;;33.03;;
40339;SDS011;26044;50.864;20.658;2023-03-01T07:31:18;75.40;;;32.20;;
40339;SDS011;26044;50.864;20.658;2023-03-01T07:33:51;66.05;;;31.20;;
40339;SDS011;26044;50.864;20.658;2023-03-01T07:36:19;72.68;;;31.38;;
40339;SDS011;26044;50.864;20.658;2023-03-01T07:38:52;73.15;;;29.95;;
40339;SDS011;26044;50.864;20.658;2023-03-01T07:41:27;75.32;;;32.00;;
40339;SDS011;26044;50.864;20.658;2023-03-01T07:43:56;78.30;;;35.88;;
40339;SDS011;26044;50.864;20.658;2023-03-01T07:46:30;78.82;;;36.53;;
40339;SDS011;26044;50.864;20.658;2023-03-01T07:49:03;80.60;;;38.38;;
40339;SDS011;26044;50.864;20.658;2023-03-01T07:51:39;92.78;;;39.88;;
40339;SDS011;26044;50.864;20.658;2023-03-01T07:54:06;88.65;;;38.70;;
40339;SDS011;26044;50.864;20.658;2023-03-01T07:56:41;69.60;;;31.73;;
40339;SDS011;26044;50.864;20.658;2023-03-01T07:59:14;82.00;;;38.53;;
40339;SDS011;26044;50.864;20.658;2023-03-01T08:01:44;74.40;;;35.30;;
40339;SDS011;26044;50.864;20.658;2023-03-01T08:04:13;72.70;;;34.03;;
40339;SDS011;26044;50.864;20.658;2023-03-01T08:06:44;191.35;;;80.85;;
40339;SDS011;26044;50.864;20.658;2023-03-01T08:09:12;70.20;;;31.67;;
40339;SDS011;26044;50.864;20.658;2023-03-01T08:11:49;63.42;;;28.25;;
40339;SDS011;26044;50.864;20.658;2023-03-01T08:15:03;59.90;;;26.73;;
40339;SDS011;26044;50.864;20.658;2023-03-01T08:17:54;69.00;;;30.08;;
40339;SDS011;26044;50.864;20.658;2023-03-01T08:20:37;61.77;;;26.80;;
40339;SDS011;26044;50.864;20.658;2023-03-01T08:23:14;78.10;;;35.58;;
40339;SDS011;26044;50.864;20.658;2023-03-01T08:29:36;58.13;;;23.92;;
40339;SDS011;26044;50.864;20.658;2023-03-01T08:32:24;57.28;;;23.65;;
40339;SDS011;26044;50.864;20.658;2023-03-01T08:38:22;50.60;;;21.90;;
40339;SDS011;26044;50.864;20.658;2023-03-01T08:41:12;44.22;;;21.42;;
40339;SDS011;26044;50.864;20.658;2023-03-01T08:44:00;51.53;;;22.70;;
40339;SDS011;26044;50.864;20.658;2023-03-01T08:46:55;52.00;;;23.38;;
40339;SDS011;26044;50.864;20.658;2023-03-01T08:49:37;55.17;;;23.40;;
40339;SDS011;26044;50.864;20.658;2023-03-01T08:52:12;59.13;;;23.85;;
40339;SDS011;26044;50.864;20.658;2023-03-01T08:55:15;57.38;;;25.17;;
40339;SDS011;26044;50.864;20.658;2023-03-01T09:01:31;60.13;;;25.83;;
40339;SDS011;26044;50.864;20.658;2023-03-01T09:04:09;66.28;;;29.83;;
40339;SDS011;26044;50.864;20.658;2023-03-01T09:06:55;69.55;;;29.48;;
40339;SDS011;26044;50.864;20.658;2023-03-01T09:09:47;57.13;;;24.30;;
40339;SDS011;26044;50.864;20.658;2023-03-01T09:12:43;60.47;;;25.60;;
40339;SDS011;26044;50.864;20.658;2023-03-01T09:15:32;56.13;;;25.73;;
40339;SDS011;26044;50.864;20.658;2023-03-01T09:18:12;59.95;;;25.70;;
40339;SDS011;26044;50.864;20.658;2023-03-01T09:20:51;55.60;;;24.08;;
40339;SDS011;26044;50.864;20.658;2023-03-01T09:23:27;49.10;;;22.58;;
40339;SDS011;26044;50.864;20.658;2023-03-01T09:26:06;51.40;;;24.52;;
40339;SDS011;26044;50.864;20.658;2023-03-01T09:29:02;56.60;;;23.20;;
40339;SDS011;26044;50.864;20.658;2023-03-01T09:31:50;52.72;;;22.95;;
40339;SDS011;26044;50.864;20.658;2023-03-01T09:34:24;54.03;;;22.90;;
40339;SDS011;26044;50.864;20.658;2023-03-01T09:36:51;51.42;;;23.52;;
40339;SDS011;26044;50.864;20.658;2023-03-01T09:39:20;52.38;;;23.00;;
40339;SDS011;26044;50.864;20.658;2023-03-01T09:42:00;50.47;;;23.02;;
40339;SDS011;26044;50.864;20.658;2023-03-01T09:44:38;57.70;;;22.70;;
40339;SDS011;26044;50.864;20.658;2023-03-01T09:47:20;50.53;;;21.50;;
40339;SDS011;26044;50.864;20.658;2023-03-01T09:50:05;46.83;;;19.25;;
40339;SDS011;26044;50.864;20.658;2023-03-01T09:55:04;47.45;;;20.45;;
40339;SDS011;26044;50.864;20.658;2023-03-01T10:00:14;46.92;;;20.58;;
40339;SDS011;26044;50.864;20.658;2023-03-01T10:02:45;47.92;;;21.25;;
40339;SDS011;26044;50.864;20.658;2023-03-01T10:05:25;51.65;;;23.23;;
40339;SDS011;26044;50.864;20.658;2023-03-01T10:10:28;53.60;;;22.52;;
40339;SDS011;26044;50.864;20.658;2023-03-01T10:13:00;53.10;;;22.85;;
40339;SDS011;26044;50.864;20.658;2023-03-01T10:15:37;45.63;;;20.35;;
40339;SDS011;26044;50.864;20.658;2023-03-01T10:18:09;49.75;;;19.63;;
40339;SDS011;26044;50.864;20.658;2023-03-01T10:20:43;52.03;;;21.50;;
40339;SDS011;26044;50.864;20.658;2023-03-01T10:23:12;40.30;;;18.38;;
40339;SDS011;26044;50.864;20.658;2023-03-01T10:28:17;40.63;;;16.65;;
40339;SDS011;26044;50.864;20.658;2023-03-01T10:30:44;43.72;;;15.98;;
40339;SDS011;26044;50.864;20.658;2023-03-01T10:33:17;36.25;;;14.48;;
40339;SDS011;26044;50.864;20.658;2023-03-01T10:35:44;39.13;;;15.93;;
40339;SDS011;26044;50.864;20.658;2023-03-01T10:38:15;43.03;;;16.37;;
40339;SDS011;26044;50.864;20.658;2023-03-01T10:43:27;40.65;;;15.57;;
40339;SDS011;26044;50.864;20.658;2023-03-01T10:45:57;38.42;;;14.85;;
40339;SDS011;26044;50.864;20.658;2023-03-01T10:48:25;35.60;;;14.85;;
40339;SDS011;26044;50.864;20.658;2023-03-01T10:58:59;39.17;;;15.73;;
40339;SDS011;26044;50.864;20.658;2023-03-01T11:01:30;37.10;;;15.15;;
40339;SDS011;26044;50.864;20.658;2023-03-01T11:06:39;40.88;;;16.85;;
40339;SDS011;26044;50.864;20.658;2023-03-01T11:09:20;38.03;;;15.95;;
40339;SDS011;26044;50.864;20.658;2023-03-01T11:14:19;126.70;;;47.22;;
40339;SDS011;26044;50.864;20.658;2023-03-01T11:19:26;37.42;;;14.68;;
40339;SDS011;26044;50.864;20.658;2023-03-01T11:22:04;39.22;;;15.02;;
40339;SDS011;26044;50.864;20.658;2023-03-01T11:30:04;35.65;;;15.95;;
40339;SDS011;26044;50.864;20.658;2023-03-01T11:32:36;36.38;;;15.15;;
40339;SDS011;26044;50.864;20.658;2023-03-01T11:35:20;31.38;;;13.07;;
40339;SDS011;26044;50.864;20.658;2023-03-01T11:37:55;33.92;;;13.82;;
40339;SDS011;26044;50.864;20.658;2023-03-01T11:40:27;33.40;;;12.95;;
40339;SDS011;26044;50.864;20.658;2023-03-01T11:43:00;36.47;;;13.00;;
40339;SDS011;26044;50.864;20.658;2023-03-01T11:45:36;34.90;;;13.98;;
40339;SDS011;26044;50.864;20.658;2023-03-01T11:51:00;30.92;;;12.52;;
40339;SDS011;26044;50.864;20.658;2023-03-01T11:56:05;37.03;;;13.02;;
40339;SDS011;26044;50.864;20.658;2023-03-01T11:58:43;32.10;;;12.90;;
40339;SDS011;26044;50.864;20.658;2023-03-01T12:12:01;30.15;;;11.02;;
40339;SDS011;26044;50.864;20.658;2023-03-01T12:20:02;29.77;;;11.35;;
40339;SDS011;26044;50.864;20.658;2023-03-01T12:25:16;32.53;;;10.65;;
40339;SDS011;26044;50.864;20.658;2023-03-01T12:35:54;26.50;;;10.82;;
40339;SDS011;26044;50.864;20.658;2023-03-01T12:41:01;26.60;;;10.25;;
40339;SDS011;26044;50.864;20.658;2023-03-01T12:43:58;28.65;;;9.52;;
40339;SDS011;26044;50.864;20.658;2023-03-01T12:51:26;32.30;;;11.25;;
40339;SDS011;26044;50.864;20.658;2023-03-01T12:53:54;33.72;;;15.25;;
40339;SDS011;26044;50.864;20.658;2023-03-01T12:56:26;30.15;;;11.45;;
40339;SDS011;26044;50.864;20.658;2023-03-01T12:58:58;30.45;;;11.77;;
40339;SDS011;26044;50.864;20.658;2023-03-01T13:04:21;27.33;;;9.80;;
40339;SDS011;26044;50.864;20.658;2023-03-01T13:14:57;26.08;;;9.95;;
40339;SDS011;26044;50.864;20.658;2023-03-01T13:17:29;28.52;;;11.02;;
40339;SDS011;26044;50.864;20.658;2023-03-01T13:20:00;25.42;;;10.32;;
40339;SDS011;26044;50.864;20.658;2023-03-01T13:22:31;30.75;;;10.98;;
40339;SDS011;26044;50.864;20.658;2023-03-01T13:25:16;27.33;;;10.65;;
40339;SDS011;26044;50.864;20.658;2023-03-01T13:27:44;30.65;;;10.77;;
40339;SDS011;26044;50.864;20.658;2023-03-01T13:30:38;27.00;;;9.40;;
40339;SDS011;26044;50.864;20.658;2023-03-01T13:34:06;29.50;;;10.85;;
40339;SDS011;26044;50.864;20.658;2023-03-01T13:36:02;25.17;;;9.80;;
40339;SDS011;26044;50.864;20.658;2023-03-01T13:38:37;28.10;;;10.45;;
40339;SDS011;26044;50.864;20.658;2023-03-01T13:41:07;29.15;;;11.15;;
40339;SDS011;26044;50.864;20.658;2023-03-01T13:43:38;25.77;;;9.80;;
40339;SDS011;26044;50.864;20.658;2023-03-01T13:46:29;24.80;;;8.88;;
40339;SDS011;26044;50.864;20.658;2023-03-01T13:48:58;24.42;;;9.60;;
40339;SDS011;26044;50.864;20.658;2023-03-01T13:51:26;25.20;;;9.30;;
40339;SDS011;26044;50.864;20.658;2023-03-01T13:53:56;27.77;;;9.73;;
40339;SDS011;26044;50.864;20.658;2023-03-01T13:56:26;25.52;;;9.27;;
40339;SDS011;26044;50.864;20.658;2023-03-01T13:58:55;26.60;;;9.88;;
40339;SDS011;26044;50.864;20.658;2023-03-01T14:03:50;30.17;;;10.18;;
40339;SDS011;26044;50.864;20.658;2023-03-01T14:06:20;26.60;;;10.15;;
40339;SDS011;26044;50.864;20.658;2023-03-01T14:08:49;26.27;;;9.65;;
40339;SDS011;26044;50.864;20.658;2023-03-01T14:21:59;25.67;;;9.30;;
40339;SDS011;26044;50.864;20.658;2023-03-01T14:24:31;30.02;;;11.50;;
40339;SDS011;26044;50.864;20.658;2023-03-01T14:27:00;25.48;;;9.20;;
40339;SDS011;26044;50.864;20.658;2023-03-01T14:29:36;26.67;;;9.40;;
40339;SDS011;26044;50.864;20.658;2023-03-01T14:34:36;35.20;;;14.52;;
40339;SDS011;26044;50.864;20.658;2023-03-01T14:37:25;25.70;;;9.20;;
40339;SDS011;26044;50.864;20.658;2023-03-01T14:39:53;24.20;;;10.35;;
40339;SDS011;26044;50.864;20.658;2023-03-01T14:42:22;29.10;;;9.95;;
40339;SDS011;26044;50.864;20.658;2023-03-01T14:44:50;99.80;;;41.85;;
40339;SDS011;26044;50.864;20.658;2023-03-01T14:47:34;55.97;;;20.25;;
40339;SDS011;26044;50.864;20.658;2023-03-01T14:50:04;39.70;;;14.32;;
40339;SDS011;26044;50.864;20.658;2023-03-01T14:52:36;26.50;;;9.60;;
40339;SDS011;26044;50.864;20.658;2023-03-01T14:55:13;39.63;;;16.08;;
40339;SDS011;26044;50.864;20.658;2023-03-01T14:57:43;24.48;;;8.63;;
40339;SDS011;26044;50.864;20.658;2023-03-01T15:00:13;27.73;;;9.35;;
40339;SDS011;26044;50.864;20.658;2023-03-01T15:02:42;57.28;;;10.43;;
40339;SDS011;26044;50.864;20.658;2023-03-01T15:05:10;23.95;;;8.35;;
40339;SDS011;26044;50.864;20.658;2023-03-01T15:07:38;23.50;;;7.68;;
40339;SDS011;26044;50.864;20.658;2023-03-01T15:10:07;27.50;;;8.65;;
40339;SDS011;26044;50.864;20.658;2023-03-01T15:12:42;28.02;;;8.55;;
40339;SDS011;26044;50.864;20.658;2023-03-01T15:17:38;163.23;;;58.30;;
40339;SDS011;26044;50.864;20.658;2023-03-01T15:20:14;52.30;;;18.40;;
40339;SDS011;26044;50.864;20.658;2023-03-01T15:22:43;31.10;;;9.20;;
40339;SDS011;26044;50.864;20.658;2023-03-01T15:25:18;356.08;;;150.18;;
40339;SDS011;26044;50.864;20.658;2023-03-01T15:27:47;133.93;;;52.08;;
40339;SDS011;26044;50.864;20.658;2023-03-01T15:30:17;131.05;;;53.80;;
40339;SDS011;26044;50.864;20.658;2023-03-01T15:32:45;69.85;;;33.25;;
40339;SDS011;26044;50.864;20.658;2023-03-01T15:38:00;27.20;;;15.10;;
40339;SDS011;26044;50.864;20.658;2023-03-01T15:40:28;30.05;;;10.48;;
40339;SDS011;26044;50.864;20.658;2023-03-01T15:42:59;30.75;;;11.00;;
40339;SDS011;26044;50.864;20.658;2023-03-01T15:45:28;48.42;;;22.75;;
40339;SDS011;26044;50.864;20.658;2023-03-01T15:48:03;38.85;;;16.88;;
40339;SDS011;26044;50.864;20.658;2023-03-01T15:50:32;48.47;;;19.83;;
40339;SDS011;26044;50.864;20.658;2023-03-01T15:53:01;28.70;;;10.20;;
40339;SDS011;26044;50.864;20.658;2023-03-01T15:55:31;30.55;;;13.82;;
40339;SDS011;26044;50.864;20.658;2023-03-01T15:58:01;47.35;;;21.27;;
40339;SDS011;26044;50.864;20.658;2023-03-01T16:00:30;48.95;;;20.75;;
40339;SDS011;26044;50.864;20.658;2023-03-01T16:02:58;30.95;;;11.05;;
40339;SDS011;26044;50.864;20.658;2023-03-01T16:05:29;35.53;;;11.77;;
40339;SDS011;26044;50.864;20.658;2023-03-01T16:07:57;33.03;;;9.70;;
40339;SDS011;26044;50.864;20.658;2023-03-01T16:10:24;27.42;;;9.77;;
40339;SDS011;26044;50.864;20.658;2023-03-01T16:12:53;26.27;;;9.30;;
40339;SDS011;26044;50.864;20.658;2023-03-01T16:15:22;33.35;;;9.98;;
40339;SDS011;26044;50.864;20.658;2023-03-01T16:17:50;29.30;;;10.68;;
40339;SDS011;26044;50.864;20.658;2023-03-01T16:20:22;37.30;;;12.32;;
40339;SDS011;26044;50.864;20.658;2023-03-01T16:22:59;83.25;;;26.40;;
40339;SDS011;26044;50.864;20.658;2023-03-01T16:25:28;200.20;;;60.17;;
40339;SDS011;26044;50.864;20.658;2023-03-01T16:27:55;70.82;;;20.58;;
40339;SDS011;26044;50.864;20.658;2023-03-01T16:30:24;49.72;;;15.10;;